ANE72SM LEXJ-LEMD
Flight info
| Callsign | ANE72SM |
|---|---|
| Flight time | 0h 47m |
| Altitude | 29000 |
| Route | TITAN N864 NONTU |
| Aircraft | CRJX/M-SDFGIRWY/S |
Departure
| Time | 2026-04-30 13:58 |
|---|---|
| Airport | Seve Ballesteros-Santander Airport (LEXJ) |
Arrival
| Time | 2026-04-30 14:45 |
|---|---|
| Airport | Adolfo Suárez Madrid–Barajas Airport (LEMD) |
| Time | Latitude | Longitude | Altitude | Speed | Heading |
|---|---|---|---|---|---|
| 2026-04-30 13:46 | 43.42407 | -3.82352 | 17 ft | 0 kts | 234° |
| 2026-04-30 13:51 | 43.42405 | -3.82358 | 17 ft | 0 kts | 253° |
| 2026-04-30 13:52 | 43.42405 | -3.82361 | 17 ft | 0 kts | 276° |
| 2026-04-30 13:52 | 43.42411 | -3.82368 | 17 ft | 3 kts | 330° |
| 2026-04-30 13:52 | 43.42448 | -3.82363 | 17 ft | 10 kts | 11° |
| 2026-04-30 13:53 | 43.42512 | -3.82335 | 17 ft | 10 kts | 20° |
| 2026-04-30 13:53 | 43.42576 | -3.82303 | 17 ft | 10 kts | 25° |
| 2026-04-30 13:53 | 43.42597 | -3.82230 | 17 ft | 8 kts | 104° |
| 2026-04-30 13:53 | 43.42578 | -3.82152 | 17 ft | 10 kts | 110° |
| 2026-04-30 13:54 | 43.42547 | -3.82039 | 17 ft | 14 kts | 110° |
| 2026-04-30 13:54 | 43.42515 | -3.81917 | 19 ft | 14 kts | 110° |
| 2026-04-30 13:54 | 43.42482 | -3.81794 | 17 ft | 15 kts | 110° |
| 2026-04-30 13:54 | 43.42440 | -3.81639 | 18 ft | 19 kts | 110° |
| 2026-04-30 13:55 | 43.42392 | -3.81456 | 17 ft | 21 kts | 110° |
| 2026-04-30 13:55 | 43.42423 | -3.81326 | 18 ft | 15 kts | 18° |
| 2026-04-30 13:55 | 43.42497 | -3.81266 | 20 ft | 11 kts | 74° |
| 2026-04-30 13:55 | 43.42481 | -3.81164 | 19 ft | 11 kts | 109° |
| 2026-04-30 13:56 | 43.42454 | -3.81057 | 20 ft | 12 kts | 110° |
| 2026-04-30 13:56 | 43.42425 | -3.80948 | 19 ft | 12 kts | 110° |
| 2026-04-30 13:56 | 43.42394 | -3.80833 | 19 ft | 14 kts | 111° |
| 2026-04-30 13:56 | 43.42335 | -3.80710 | 17 ft | 16 kts | 137° |
| 2026-04-30 13:57 | 43.42323 | -3.80652 | 17 ft | 0 kts | 43° |
| 2026-04-30 13:57 | 43.42354 | -3.80680 | 17 ft | 14 kts | 290° |
| 2026-04-30 13:57 | 43.42437 | -3.80992 | 18 ft | 69 kts | 289° |
| 2026-04-30 13:57 | 43.42686 | -3.81923 | 17 ft | 134 kts | 289° |
| 2026-04-30 13:58 | 43.43057 | -3.83286 | 265 ft | 159 kts | 292° |
| 2026-04-30 13:58 | 43.43848 | -3.86137 | 1588 ft | 162 kts | 294° |
| 2026-04-30 13:58 | 43.44273 | -3.87573 | 2280 ft | 161 kts | 295° |
| 2026-04-30 13:59 | 43.44679 | -3.89008 | 2974 ft | 159 kts | 293° |
| 2026-04-30 13:59 | 43.45052 | -3.90413 | 3569 ft | 158 kts | 290° |
| 2026-04-30 13:59 | 43.45419 | -3.91922 | 3979 ft | 172 kts | 288° |
| 2026-04-30 13:59 | 43.45810 | -3.93547 | 4433 ft | 185 kts | 288° |
| 2026-04-30 14:00 | 43.46232 | -3.95273 | 4892 ft | 195 kts | 287° |
| 2026-04-30 14:00 | 43.47181 | -3.99041 | 5480 ft | 221 kts | 287° |
| 2026-04-30 14:00 | 43.47685 | -4.01079 | 5772 ft | 229 kts | 287° |
| 2026-04-30 14:01 | 43.48222 | -4.03250 | 5946 ft | 257 kts | 287° |
| 2026-04-30 14:01 | 43.48901 | -4.05658 | 6527 ft | 276 kts | 287° |
| 2026-04-30 14:01 | 43.49265 | -4.08274 | 7378 ft | 282 kts | 274° |
| 2026-04-30 14:01 | 43.49226 | -4.10979 | 8339 ft | 283 kts | 254° |
| 2026-04-30 14:02 | 43.48244 | -4.13267 | 9369 ft | 280 kts | 220° |
| 2026-04-30 14:02 | 43.46508 | -4.14391 | 10396 ft | 278 kts | 187° |
| 2026-04-30 14:02 | 43.44634 | -4.14018 | 11291 ft | 282 kts | 155° |
| 2026-04-30 14:02 | 43.43101 | -4.12269 | 11893 ft | 297 kts | 124° |
| 2026-04-30 14:03 | 43.42395 | -4.09556 | 12472 ft | 310 kts | 95° |
| 2026-04-30 14:03 | 43.42086 | -4.06564 | 13023 ft | 324 kts | 110° |
| 2026-04-30 14:03 | 43.41053 | -4.03738 | 13614 ft | 336 kts | 118° |
| 2026-04-30 14:03 | 43.40280 | -4.00672 | 14149 ft | 346 kts | 95° |
| 2026-04-30 14:04 | 43.39947 | -3.97380 | 14639 ft | 358 kts | 107° |
| 2026-04-30 14:04 | 43.38696 | -3.94415 | 15124 ft | 364 kts | 134° |
| 2026-04-30 14:04 | 43.36614 | -3.92425 | 15589 ft | 368 kts | 160° |
| 2026-04-30 14:04 | 43.34095 | -3.91772 | 15991 ft | 371 kts | 184° |
| 2026-04-30 14:05 | 43.31589 | -3.92448 | 16414 ft | 375 kts | 198° |
| 2026-04-30 14:05 | 43.29030 | -3.93305 | 16822 ft | 384 kts | 192° |
| 2026-04-30 14:05 | 43.26409 | -3.93624 | 17222 ft | 394 kts | 183° |
| 2026-04-30 14:05 | 43.23640 | -3.93481 | 17707 ft | 399 kts | 180° |
| 2026-04-30 14:06 | 43.21292 | -3.93550 | 18151 ft | 400 kts | 186° |
| 2026-04-30 14:06 | 43.15902 | -3.94423 | 19054 ft | 405 kts | 190° |
| 2026-04-30 14:07 | 43.10305 | -3.95386 | 19964 ft | 409 kts | 188° |
| 2026-04-30 14:07 | 43.07467 | -3.95807 | 20429 ft | 410 kts | 189° |
| 2026-04-30 14:07 | 43.04620 | -3.96236 | 20906 ft | 411 kts | 189° |
| 2026-04-30 14:08 | 42.98959 | -3.97085 | 21858 ft | 411 kts | 189° |
| 2026-04-30 14:08 | 42.96098 | -3.97525 | 22293 ft | 412 kts | 189° |
| 2026-04-30 14:08 | 42.90388 | -3.98345 | 23149 ft | 418 kts | 189° |
| 2026-04-30 14:09 | 42.87516 | -3.98771 | 23585 ft | 420 kts | 189° |
| 2026-04-30 14:09 | 42.84597 | -3.99192 | 23971 ft | 422 kts | 189° |
| 2026-04-30 14:09 | 42.78729 | -4.00049 | 24704 ft | 425 kts | 189° |
| 2026-04-30 14:10 | 42.75769 | -4.00478 | 25087 ft | 426 kts | 189° |
| 2026-04-30 14:10 | 42.72816 | -4.00910 | 25472 ft | 426 kts | 189° |
| 2026-04-30 14:10 | 42.69862 | -4.01338 | 25863 ft | 426 kts | 189° |
| 2026-04-30 14:10 | 42.66947 | -4.01763 | 26245 ft | 426 kts | 189° |
| 2026-04-30 14:11 | 42.63993 | -4.02192 | 26650 ft | 425 kts | 189° |
| 2026-04-30 14:11 | 42.61052 | -4.02619 | 27033 ft | 424 kts | 189° |
| 2026-04-30 14:11 | 42.58119 | -4.03051 | 27443 ft | 423 kts | 189° |
| 2026-04-30 14:11 | 42.55229 | -4.03462 | 27851 ft | 422 kts | 189° |
| 2026-04-30 14:12 | 42.52311 | -4.03870 | 28271 ft | 420 kts | 189° |
| 2026-04-30 14:12 | 42.49407 | -4.04290 | 28689 ft | 418 kts | 190° |
| 2026-04-30 14:12 | 42.46547 | -4.04710 | 28928 ft | 420 kts | 189° |
| 2026-04-30 14:13 | 42.40644 | -4.05559 | 29071 ft | 432 kts | 189° |
| 2026-04-30 14:13 | 42.34549 | -4.06436 | 29110 ft | 445 kts | 189° |
| 2026-04-30 14:14 | 42.28365 | -4.07318 | 29114 ft | 453 kts | 189° |
| 2026-04-30 14:14 | 42.22050 | -4.08225 | 29111 ft | 458 kts | 189° |
| 2026-04-30 14:15 | 42.15663 | -4.09138 | 29107 ft | 463 kts | 189° |
| 2026-04-30 14:15 | 42.09199 | -4.10059 | 29104 ft | 470 kts | 189° |
| 2026-04-30 14:16 | 42.02692 | -4.10979 | 29095 ft | 467 kts | 188° |
| 2026-04-30 14:16 | 41.96292 | -4.11705 | 29094 ft | 461 kts | 188° |
| 2026-04-30 14:17 | 41.89924 | -4.12439 | 29091 ft | 456 kts | 188° |
| 2026-04-30 14:17 | 41.83667 | -4.13151 | 29093 ft | 452 kts | 188° |
| 2026-04-30 14:18 | 41.77419 | -4.13859 | 29085 ft | 448 kts | 188° |
| 2026-04-30 14:18 | 41.68187 | -4.14908 | 28666 ft | 442 kts | 188° |
| 2026-04-30 14:19 | 41.62064 | -4.15602 | 27915 ft | 439 kts | 187° |
| 2026-04-30 14:19 | 41.59015 | -4.15943 | 27555 ft | 439 kts | 187° |
| 2026-04-30 14:19 | 41.56003 | -4.16285 | 27188 ft | 438 kts | 187° |
| 2026-04-30 14:20 | 41.52961 | -4.16627 | 26797 ft | 437 kts | 187° |
| 2026-04-30 14:20 | 41.49958 | -4.16975 | 26304 ft | 428 kts | 187° |
| 2026-04-30 14:20 | 41.44265 | -4.17602 | 25144 ft | 421 kts | 187° |
| 2026-04-30 14:21 | 41.41396 | -4.17929 | 24562 ft | 418 kts | 187° |
| 2026-04-30 14:21 | 41.38503 | -4.18254 | 23983 ft | 415 kts | 187° |
| 2026-04-30 14:21 | 41.32775 | -4.18897 | 22853 ft | 407 kts | 186° |
| 2026-04-30 14:22 | 41.29965 | -4.19216 | 22305 ft | 403 kts | 186° |
| 2026-04-30 14:22 | 41.24437 | -4.19741 | 21228 ft | 397 kts | 184° |
| 2026-04-30 14:22 | 41.21683 | -4.19892 | 20758 ft | 393 kts | 184° |
| 2026-04-30 14:23 | 41.16294 | -4.20217 | 19885 ft | 385 kts | 184° |
| 2026-04-30 14:23 | 41.10974 | -4.20540 | 19101 ft | 378 kts | 184° |
| 2026-04-30 14:24 | 41.05793 | -4.20855 | 18459 ft | 369 kts | 184° |
| 2026-04-30 14:24 | 41.03238 | -4.21010 | 18092 ft | 365 kts | 184° |
| 2026-04-30 14:25 | 40.98364 | -4.21303 | 17403 ft | 360 kts | 184° |
| 2026-04-30 14:25 | 40.93438 | -4.21603 | 16686 ft | 355 kts | 184° |
| 2026-04-30 14:26 | 40.88518 | -4.21905 | 15990 ft | 351 kts | 184° |
| 2026-04-30 14:26 | 40.86079 | -4.22062 | 15648 ft | 349 kts | 184° |
| 2026-04-30 14:26 | 40.81224 | -4.22335 | 14982 ft | 346 kts | 184° |
| 2026-04-30 14:27 | 40.78862 | -4.22481 | 14752 ft | 342 kts | 184° |
| 2026-04-30 14:27 | 40.76496 | -4.22625 | 14514 ft | 338 kts | 184° |
| 2026-04-30 14:27 | 40.74151 | -4.22769 | 14288 ft | 335 kts | 184° |
| 2026-04-30 14:28 | 40.69519 | -4.23044 | 13792 ft | 329 kts | 184° |
| 2026-04-30 14:28 | 40.67266 | -4.23178 | 13524 ft | 327 kts | 184° |
| 2026-04-30 14:28 | 40.64997 | -4.23310 | 13263 ft | 327 kts | 184° |
| 2026-04-30 14:28 | 40.62742 | -4.23448 | 13023 ft | 330 kts | 184° |
| 2026-04-30 14:29 | 40.58883 | -4.23680 | 12614 ft | 335 kts | 184° |
| 2026-04-30 14:29 | 40.54196 | -4.23966 | 12194 ft | 337 kts | 184° |
| 2026-04-30 14:30 | 40.47429 | -4.21579 | 11602 ft | 340 kts | 159° |
| 2026-04-30 14:31 | 40.43110 | -4.19149 | 11243 ft | 339 kts | 156° |
| 2026-04-30 14:31 | 40.39717 | -4.14911 | 10998 ft | 335 kts | 141° |
| 2026-04-30 14:31 | 40.37712 | -4.13489 | 10980 ft | 325 kts | 161° |
| 2026-04-30 14:32 | 40.34527 | -4.09578 | 10977 ft | 326 kts | 120° |
| 2026-04-30 14:32 | 40.33555 | -4.07071 | 10871 ft | 330 kts | 117° |
| 2026-04-30 14:32 | 40.32560 | -4.04307 | 10557 ft | 339 kts | 116° |
| 2026-04-30 14:33 | 40.31600 | -4.01483 | 10219 ft | 336 kts | 115° |
| 2026-04-30 14:33 | 40.29818 | -3.95946 | 9460 ft | 323 kts | 113° |
| 2026-04-30 14:33 | 40.29031 | -3.93244 | 9076 ft | 318 kts | 111° |
| 2026-04-30 14:34 | 40.28316 | -3.90531 | 8699 ft | 313 kts | 110° |
| 2026-04-30 14:34 | 40.27624 | -3.87811 | 8331 ft | 312 kts | 110° |
| 2026-04-30 14:34 | 40.26946 | -3.85185 | 7961 ft | 305 kts | 110° |
| 2026-04-30 14:34 | 40.26264 | -3.82574 | 7582 ft | 299 kts | 110° |
| 2026-04-30 14:35 | 40.24952 | -3.77553 | 7074 ft | 280 kts | 110° |
| 2026-04-30 14:35 | 40.24335 | -3.75193 | 6994 ft | 265 kts | 110° |
| 2026-04-30 14:35 | 40.23760 | -3.72935 | 6963 ft | 259 kts | 109° |
| 2026-04-30 14:36 | 40.23213 | -3.70707 | 6957 ft | 255 kts | 109° |
| 2026-04-30 14:36 | 40.22673 | -3.68503 | 6958 ft | 255 kts | 109° |
| 2026-04-30 14:36 | 40.22134 | -3.66303 | 6958 ft | 259 kts | 109° |
| 2026-04-30 14:36 | 40.21564 | -3.64051 | 6957 ft | 262 kts | 109° |
| 2026-04-30 14:37 | 40.20982 | -3.61770 | 6955 ft | 265 kts | 110° |
| 2026-04-30 14:37 | 40.20392 | -3.59472 | 6940 ft | 266 kts | 109° |
| 2026-04-30 14:37 | 40.19808 | -3.57191 | 6822 ft | 260 kts | 109° |
| 2026-04-30 14:37 | 40.19283 | -3.55141 | 6618 ft | 256 kts | 109° |
| 2026-04-30 14:38 | 40.18711 | -3.52955 | 6388 ft | 252 kts | 110° |
| 2026-04-30 14:38 | 40.18150 | -3.50802 | 6155 ft | 248 kts | 110° |
| 2026-04-30 14:38 | 40.17601 | -3.48667 | 6050 ft | 247 kts | 107° |
| 2026-04-30 14:38 | 40.17553 | -3.46538 | 5958 ft | 248 kts | 73° |
| 2026-04-30 14:39 | 40.18347 | -3.44562 | 5973 ft | 246 kts | 55° |
| 2026-04-30 14:39 | 40.19469 | -3.42839 | 5990 ft | 256 kts | 44° |
| 2026-04-30 14:39 | 40.20802 | -3.41287 | 5992 ft | 263 kts | 37° |
| 2026-04-30 14:40 | 40.24083 | -3.38920 | 5978 ft | 270 kts | 26° |
| 2026-04-30 14:40 | 40.25854 | -3.38288 | 5899 ft | 262 kts | 360° |
| 2026-04-30 14:40 | 40.27651 | -3.38453 | 5833 ft | 256 kts | 351° |
| 2026-04-30 14:40 | 40.29378 | -3.38808 | 5779 ft | 252 kts | 349° |
| 2026-04-30 14:41 | 40.30995 | -3.39637 | 5663 ft | 250 kts | 324° |
| 2026-04-30 14:41 | 40.32390 | -3.41019 | 5530 ft | 251 kts | 319° |
| 2026-04-30 14:41 | 40.33724 | -3.42495 | 5337 ft | 255 kts | 318° |
| 2026-04-30 14:41 | 40.35098 | -3.44021 | 5045 ft | 262 kts | 319° |
| 2026-04-30 14:42 | 40.36507 | -3.45517 | 4648 ft | 271 kts | 320° |
| 2026-04-30 14:42 | 40.38005 | -3.47006 | 4269 ft | 265 kts | 322° |
| 2026-04-30 14:42 | 40.38894 | -3.47863 | 4237 ft | 252 kts | 322° |
| 2026-04-30 14:42 | 40.40308 | -3.49226 | 3960 ft | 229 kts | 322° |
| 2026-04-30 14:43 | 40.41406 | -3.50313 | 3525 ft | 220 kts | 322° |
| 2026-04-30 14:43 | 40.42548 | -3.51426 | 3273 ft | 179 kts | 321° |
| 2026-04-30 14:43 | 40.43450 | -3.52364 | 2800 ft | 158 kts | 320° |
| 2026-04-30 14:43 | 40.44263 | -3.53229 | 2462 ft | 150 kts | 320° |
| 2026-04-30 14:44 | 40.45090 | -3.54109 | 2216 ft | 151 kts | 320° |
| 2026-04-30 14:44 | 40.45720 | -3.54763 | 2056 ft | 147 kts | 321° |
| 2026-04-30 14:44 | 40.46515 | -3.55588 | 1948 ft | 133 kts | 320° |
| 2026-04-30 14:44 | 40.46755 | -3.55841 | 1963 ft | 118 kts | 322° |
| 2026-04-30 14:45 | 40.47274 | -3.56374 | 1985 ft | 78 kts | 322° |
| 2026-04-30 14:45 | 40.47621 | -3.56722 | 1995 ft | 54 kts | 322° |
| 2026-04-30 14:45 | 40.47796 | -3.57032 | 1997 ft | 20 kts | 286° |
| 2026-04-30 14:45 | 40.47740 | -3.57120 | 1997 ft | 8 kts | 166° |
| 2026-04-30 14:46 | 40.47732 | -3.57115 | 1997 ft | 0 kts | 147° |
| 2026-04-30 14:46 | 40.47727 | -3.57110 | 1995 ft | 2 kts | 136° |
| 2026-04-30 14:46 | 40.47713 | -3.57091 | 1996 ft | 4 kts | 133° |
| 2026-04-30 14:46 | 40.47687 | -3.57063 | 1996 ft | 6 kts | 155° |
| 2026-04-30 14:47 | 40.47647 | -3.57069 | 1995 ft | 6 kts | 213° |
| 2026-04-30 14:47 | 40.47636 | -3.57108 | 1995 ft | 4 kts | 287° |
| 2026-04-30 14:47 | 40.47650 | -3.57133 | 1994 ft | 4 kts | 315° |
| 2026-04-30 14:47 | 40.47685 | -3.57173 | 1997 ft | 11 kts | 323° |
| 2026-04-30 14:48 | 40.47748 | -3.57236 | 1999 ft | 12 kts | 322° |
| 2026-04-30 14:48 | 40.47812 | -3.57301 | 2001 ft | 12 kts | 322° |
| 2026-04-30 14:48 | 40.47876 | -3.57365 | 2003 ft | 12 kts | 322° |
| 2026-04-30 14:48 | 40.47947 | -3.57437 | 2002 ft | 14 kts | 322° |
| 2026-04-30 14:49 | 40.48031 | -3.57524 | 1999 ft | 16 kts | 322° |
| 2026-04-30 14:49 | 40.48124 | -3.57619 | 1997 ft | 18 kts | 322° |
| 2026-04-30 14:49 | 40.48227 | -3.57724 | 1993 ft | 20 kts | 323° |
| 2026-04-30 14:49 | 40.48341 | -3.57837 | 1990 ft | 21 kts | 323° |
| 2026-04-30 14:50 | 40.48513 | -3.58055 | 2001 ft | 12 kts | 271° |
| 2026-04-30 14:50 | 40.48512 | -3.58147 | 2005 ft | 8 kts | 269° |
| 2026-04-30 14:51 | 40.48511 | -3.58277 | 2009 ft | 10 kts | 270° |
| 2026-04-30 14:51 | 40.48511 | -3.58380 | 2013 ft | 13 kts | 270° |
| 2026-04-30 14:51 | 40.48510 | -3.58675 | 2017 ft | 19 kts | 270° |
| 2026-04-30 14:52 | 40.48561 | -3.58807 | 2018 ft | 18 kts | 354° |
| 2026-04-30 14:52 | 40.48802 | -3.58809 | 2020 ft | 17 kts | 359° |
| 2026-04-30 14:52 | 40.48920 | -3.58811 | 2020 ft | 17 kts | 360° |
| 2026-04-30 14:53 | 40.49155 | -3.58812 | 2018 ft | 17 kts | 360° |
| 2026-04-30 14:53 | 40.49271 | -3.58813 | 2020 ft | 17 kts | 359° |
| 2026-04-30 14:54 | 40.49503 | -3.58815 | 2020 ft | 16 kts | 0° |
| 2026-04-30 14:54 | 40.49725 | -3.58819 | 2020 ft | 11 kts | 344° |
| 2026-04-30 14:55 | 40.49742 | -3.58878 | 2018 ft | 0 kts | 246° |
| 2026-04-30 14:55 | 40.49740 | -3.58896 | 2016 ft | 3 kts | 270° |
| 2026-04-30 14:55 | 40.49745 | -3.58953 | 2016 ft | 5 kts | 274° |
| 2026-04-30 14:56 | 40.49706 | -3.58980 | 2020 ft | 1 kts | 180° |
| 2026-04-30 14:56 | 40.49705 | -3.58980 | 2020 ft | 0 kts | 179° |